createdAt,value
2023-05-12T00:01:47.793Z,7.68
2023-05-12T00:04:33.432Z,7.85
2023-05-12T00:07:19.268Z,7.32
2023-05-12T00:10:07.087Z,7.25
2023-05-12T00:12:52.749Z,7.80
2023-05-12T00:15:38.660Z,8.07
2023-05-12T00:18:24.096Z,8.40
2023-05-12T00:21:09.952Z,8.27
2023-05-12T00:23:55.695Z,7.93
2023-05-12T00:26:42.450Z,7.22
2023-05-12T00:29:28.035Z,6.53
2023-05-12T00:32:14.271Z,6.63
2023-05-12T00:34:59.901Z,6.40
2023-05-12T00:37:45.651Z,6.25
2023-05-12T00:40:31.091Z,6.22
2023-05-12T00:43:17.888Z,6.28
2023-05-12T00:46:06.205Z,7.10
2023-05-12T00:48:52.524Z,6.60
2023-05-12T00:51:39.482Z,6.35
2023-05-12T00:54:26.416Z,6.70
2023-05-12T00:57:13.032Z,6.45
2023-05-12T01:00:00.484Z,6.05
2023-05-12T01:02:46.320Z,6.80
2023-05-12T01:05:39.436Z,6.90
2023-05-12T01:08:25.653Z,7.00
2023-05-12T01:11:11.054Z,6.15
2023-05-12T01:13:57.282Z,6.30
2023-05-12T01:16:49.831Z,5.75
2023-05-12T01:19:42.540Z,5.60
2023-05-12T01:22:33.679Z,5.45
2023-05-12T01:25:23.524Z,5.97
2023-05-12T01:28:10.898Z,5.93
2023-05-12T01:30:57.553Z,6.25
2023-05-12T01:33:43.554Z,6.43
2023-05-12T01:36:29.302Z,6.78
2023-05-12T01:39:15.204Z,6.55
2023-05-12T01:42:01.409Z,6.90
2023-05-12T01:44:48.658Z,6.95
2023-05-12T01:47:34.375Z,6.28
2023-05-12T01:50:27.683Z,6.03
2023-05-12T01:53:14.643Z,5.88
2023-05-12T01:56:00.581Z,6.22
2023-05-12T01:58:47.039Z,5.25
2023-05-12T02:01:34.474Z,5.55
2023-05-12T02:04:20.143Z,5.13
2023-05-12T02:07:07.166Z,4.65
2023-05-12T02:09:53.680Z,4.60
2023-05-12T02:12:40.393Z,5.13
2023-05-12T02:15:26.477Z,4.70
2023-05-12T02:18:14.993Z,5.45
2023-05-12T02:21:01.359Z,4.80
2023-05-12T02:23:48.117Z,4.47
2023-05-12T02:26:33.868Z,4.43
2023-05-12T02:29:19.953Z,4.97
2023-05-12T02:32:06.248Z,4.50
2023-05-12T02:34:53.481Z,4.40
2023-05-12T02:37:39.358Z,4.18
2023-05-12T02:40:25.112Z,3.78
2023-05-12T02:43:11.601Z,3.85
2023-05-12T02:45:57.500Z,5.20
2023-05-12T02:48:43.331Z,5.00
2023-05-12T02:51:30.640Z,4.47
2023-05-12T02:54:16.363Z,5.00
2023-05-12T02:57:04.979Z,5.60
2023-05-12T02:59:51.003Z,5.63
2023-05-12T03:02:41.047Z,5.70
2023-05-12T03:05:26.883Z,6.57
2023-05-12T03:08:14.232Z,6.80
2023-05-12T03:11:00.229Z,6.43
2023-05-12T03:13:46.095Z,7.90
2023-05-12T03:16:31.962Z,7.40
2023-05-12T03:19:17.387Z,8.82
2023-05-12T03:22:03.578Z,9.20
2023-05-12T03:24:50.628Z,9.25
2023-05-12T03:27:36.885Z,9.88
2023-05-12T03:30:23.096Z,9.50
2023-05-12T03:33:09.216Z,9.38
2023-05-12T03:35:54.959Z,10.80
2023-05-12T03:38:42.430Z,11.13
2023-05-12T03:41:29.395Z,11.73
2023-05-12T03:44:15.644Z,11.88
2023-05-12T03:47:01.970Z,11.52
2023-05-12T03:49:48.753Z,11.90
2023-05-12T03:52:34.827Z,13.55
2023-05-12T03:55:21.121Z,11.05
2023-05-12T03:58:08.179Z,13.02
2023-05-12T04:00:56.882Z,13.80
2023-05-12T04:03:42.500Z,12.95
2023-05-12T04:06:28.146Z,14.07
2023-05-12T04:09:14.055Z,12.90
2023-05-12T04:12:00.215Z,15.45
2023-05-12T04:14:48.216Z,14.77
2023-05-12T04:17:34.033Z,15.85
2023-05-12T04:20:20.176Z,16.20
2023-05-12T04:23:06.572Z,15.32
2023-05-12T04:25:52.569Z,17.20
2023-05-12T04:28:38.700Z,15.02
2023-05-12T04:31:26.017Z,16.77
2023-05-12T04:34:12.261Z,16.77
2023-05-12T04:36:58.299Z,17.13
2023-05-12T04:39:43.947Z,18.63
2023-05-12T04:42:30.043Z,18.35
2023-05-12T04:45:16.425Z,16.98
2023-05-12T04:48:03.606Z,17.60
2023-05-12T04:50:49.518Z,18.70
2023-05-12T04:53:36.275Z,18.95
2023-05-12T04:56:22.380Z,19.33
2023-05-12T04:59:08.809Z,20.05
2023-05-12T05:01:54.587Z,19.88
2023-05-12T05:04:42.111Z,20.23
2023-05-12T05:07:28.819Z,18.08
2023-05-12T05:10:14.695Z,19.95
2023-05-12T05:13:02.410Z,20.83
2023-05-12T05:15:51.985Z,20.40
2023-05-12T05:18:38.515Z,22.67
2023-05-12T05:21:26.208Z,21.20
2023-05-12T05:24:11.833Z,20.95
2023-05-12T05:26:57.921Z,21.67
2023-05-12T05:29:43.453Z,21.65
2023-05-12T05:32:29.146Z,20.05
2023-05-12T05:35:14.903Z,22.67
2023-05-12T05:38:06.341Z,22.00
2023-05-12T05:40:53.678Z,22.15
2023-05-12T05:43:40.927Z,22.38
2023-05-12T05:46:26.678Z,22.45
2023-05-12T05:49:12.247Z,22.17
2023-05-12T05:51:58.102Z,23.63
2023-05-12T05:54:45.069Z,22.13
2023-05-12T05:57:31.377Z,20.00
2023-05-12T06:00:19.199Z,22.25
2023-05-12T06:03:09.635Z,20.85
2023-05-12T06:05:56.073Z,21.50
2023-05-12T06:08:42.721Z,22.98
2023-05-12T06:11:29.684Z,21.42
2023-05-12T06:14:15.104Z,20.98
2023-05-12T06:17:00.677Z,21.05
2023-05-12T06:19:47.784Z,21.00
2023-05-12T06:22:34.684Z,20.42
2023-05-12T06:25:20.615Z,17.35
2023-05-12T06:28:08.502Z,20.30
2023-05-12T06:30:54.349Z,19.50
2023-05-12T06:33:40.161Z,18.25
2023-05-12T06:36:32.028Z,19.13
2023-05-12T06:39:17.930Z,19.52
2023-05-12T06:42:04.513Z,19.65
2023-05-12T06:45:00.765Z,19.13
2023-05-12T06:47:46.481Z,18.02
2023-05-12T06:50:32.122Z,17.98
2023-05-12T06:53:17.876Z,17.65
2023-05-12T06:56:04.551Z,19.10
2023-05-12T06:58:50.530Z,16.95
2023-05-12T07:01:37.516Z,17.23
2023-05-12T07:04:24.573Z,15.90
2023-05-12T07:07:12.032Z,15.27
2023-05-12T07:09:57.424Z,14.05
2023-05-12T07:12:43.214Z,16.58
2023-05-12T07:15:30.667Z,15.15
2023-05-12T07:18:19.552Z,12.70
2023-05-12T07:21:05.649Z,14.88
2023-05-12T07:23:51.527Z,13.90
2023-05-12T07:26:38.002Z,14.65
2023-05-12T07:29:24.136Z,13.65
2023-05-12T07:32:09.849Z,13.48
2023-05-12T07:34:56.686Z,12.80
2023-05-12T07:37:42.926Z,12.35
2023-05-12T07:40:28.627Z,12.27
2023-05-12T07:43:14.108Z,12.85
2023-05-12T07:46:01.027Z,10.70
2023-05-12T07:48:46.917Z,10.68
2023-05-12T07:51:34.018Z,11.43
2023-05-12T07:54:19.651Z,10.48
2023-05-12T07:57:05.361Z,10.18
2023-05-12T07:59:51.367Z,8.82
2023-05-12T08:02:37.974Z,8.35
2023-05-12T08:05:23.629Z,7.85
2023-05-12T08:08:16.520Z,6.47
2023-05-12T08:11:02.492Z,5.93
2023-05-12T08:13:48.152Z,6.07
2023-05-12T08:16:34.038Z,6.22
2023-05-12T08:19:19.728Z,5.90
2023-05-12T08:22:05.386Z,4.95
2023-05-12T08:24:52.768Z,5.47
2023-05-12T08:27:38.708Z,5.53
2023-05-12T08:30:24.255Z,4.82
2023-05-12T08:33:10.984Z,5.22
2023-05-12T08:35:56.742Z,5.30
2023-05-12T08:38:42.784Z,4.97
2023-05-12T08:41:40.735Z,4.47
2023-05-12T08:44:26.747Z,4.20
2023-05-12T08:47:13.221Z,4.72
2023-05-12T08:50:00.833Z,3.90
2023-05-12T08:52:46.913Z,3.60
2023-05-12T08:55:35.177Z,3.60
2023-05-12T08:58:30.633Z,3.58
2023-05-12T09:01:27.032Z,3.47
2023-05-12T09:04:15.353Z,3.72
2023-05-12T09:07:01.109Z,3.63
2023-05-12T09:09:51.638Z,4.03
2023-05-12T09:12:38.482Z,4.10
2023-05-12T09:15:30.262Z,4.10
2023-05-12T09:18:16.116Z,3.75
2023-05-12T09:21:01.870Z,3.78
2023-05-12T09:23:58.529Z,3.55
2023-05-12T09:26:48.794Z,3.70
2023-05-12T09:29:42.455Z,3.33
2023-05-12T09:32:36.162Z,3.45
2023-05-12T09:35:22.246Z,3.83
2023-05-12T09:38:08.717Z,3.33
2023-05-12T09:40:54.326Z,3.70
2023-05-12T09:43:46.147Z,3.38
2023-05-12T09:46:32.300Z,2.95
2023-05-12T09:49:27.129Z,2.75
2023-05-12T09:52:12.593Z,2.85
2023-05-12T09:55:05.190Z,2.70
2023-05-12T09:57:52.203Z,2.75
2023-05-12T10:01:02.355Z,2.60
2023-05-12T10:03:51.019Z,2.40
2023-05-12T10:06:47.409Z,2.65
2023-05-12T10:09:34.697Z,2.50
2023-05-12T10:12:20.304Z,2.28
2023-05-12T10:15:08.518Z,2.20
2023-05-12T10:17:55.443Z,2.78
2023-05-12T10:20:43.671Z,2.47
2023-05-12T10:23:31.903Z,2.25
2023-05-12T10:26:18.981Z,2.70
2023-05-12T10:29:04.878Z,2.00
2023-05-12T10:31:51.104Z,2.20
2023-05-12T10:34:40.816Z,2.22
2023-05-12T10:37:29.385Z,2.08
2023-05-12T10:40:25.563Z,1.90
2023-05-12T10:43:22.963Z,2.20
2023-05-12T10:46:17.422Z,2.25
2023-05-12T10:49:07.303Z,2.10
2023-05-12T10:51:59.795Z,2.10
2023-05-12T10:54:47.046Z,2.00
2023-05-12T10:57:34.653Z,2.58
2023-05-12T11:00:24.807Z,1.85
2023-05-12T11:03:18.422Z,2.38
2023-05-12T11:06:05.557Z,2.28
2023-05-12T11:08:51.437Z,1.95
2023-05-12T11:11:38.405Z,1.95
2023-05-12T11:14:26.087Z,1.95
2023-05-12T11:17:11.660Z,1.90
2023-05-12T11:19:57.411Z,1.80
2023-05-12T11:22:43.368Z,1.90
2023-05-12T11:25:28.999Z,1.60
2023-05-12T11:28:14.614Z,1.85
2023-05-12T11:31:01.488Z,1.90
2023-05-12T11:33:47.410Z,1.90
2023-05-12T11:36:39.674Z,1.70
2023-05-12T11:39:27.907Z,1.33
2023-05-12T11:42:15.107Z,1.65
2023-05-12T11:45:05.522Z,1.45
2023-05-12T11:47:53.492Z,1.35
2023-05-12T11:50:40.667Z,1.60
2023-05-12T11:53:27.689Z,1.80
2023-05-12T11:56:19.388Z,1.80
2023-05-12T11:59:05.041Z,1.75
2023-05-12T12:01:50.780Z,1.80
2023-05-12T12:04:40.697Z,1.70
2023-05-12T12:07:31.633Z,1.98
2023-05-12T12:10:18.722Z,2.10
2023-05-12T12:13:04.455Z,1.80
2023-05-12T12:15:50.577Z,1.90
2023-05-12T12:18:36.495Z,1.75
2023-05-12T12:21:25.030Z,2.05
2023-05-12T12:24:10.927Z,1.90
2023-05-12T12:26:56.796Z,1.90
2023-05-12T12:29:42.660Z,1.40
2023-05-12T12:32:29.124Z,1.83
2023-05-12T12:35:15.151Z,1.80
2023-05-12T12:38:02.611Z,1.55
2023-05-12T12:40:48.493Z,1.95
2023-05-12T12:43:34.122Z,1.70
2023-05-12T12:46:20.203Z,1.63
2023-05-12T12:49:06.189Z,1.67
2023-05-12T12:51:52.195Z,1.70
2023-05-12T12:54:39.582Z,1.60
2023-05-12T12:57:26.023Z,1.70
2023-05-12T13:00:13.487Z,2.17
2023-05-12T13:02:59.954Z,2.00
2023-05-12T13:05:45.790Z,2.20
2023-05-12T13:08:31.272Z,1.98
2023-05-12T13:11:18.644Z,2.20
2023-05-12T13:14:04.950Z,1.80
2023-05-12T13:16:51.071Z,2.05
2023-05-12T13:19:38.265Z,2.35
2023-05-12T13:22:25.768Z,2.03
2023-05-12T13:25:11.824Z,2.10
2023-05-12T13:27:58.911Z,2.00
2023-05-12T13:30:44.772Z,2.30
2023-05-12T13:33:30.793Z,2.20
2023-05-12T13:36:16.964Z,2.53
2023-05-12T13:39:03.132Z,2.42
2023-05-12T13:41:49.086Z,2.25
2023-05-12T13:44:36.136Z,2.67
2023-05-12T13:47:21.944Z,2.40
2023-05-12T13:50:09.035Z,2.50
2023-05-12T13:52:54.762Z,2.10
2023-05-12T13:55:41.312Z,2.45
2023-05-12T13:58:26.888Z,2.60
2023-05-12T14:01:14.593Z,2.80
2023-05-12T14:04:00.536Z,2.70
2023-05-12T14:06:46.490Z,2.45
2023-05-12T14:09:32.283Z,2.10
2023-05-12T14:12:17.772Z,2.83
2023-05-12T14:15:21.951Z,2.60
2023-05-12T14:18:14.808Z,2.50
2023-05-12T14:21:01.917Z,2.28
2023-05-12T14:23:49.361Z,3.10
2023-05-12T14:26:37.021Z,2.50
2023-05-12T14:29:23.012Z,2.70
2023-05-12T14:32:09.024Z,2.70
2023-05-12T14:34:56.248Z,3.10
2023-05-12T14:37:41.742Z,2.80
2023-05-12T14:40:27.499Z,2.90
2023-05-12T14:43:13.430Z,2.78
2023-05-12T14:45:59.134Z,3.05
2023-05-12T14:48:45.062Z,2.50
2023-05-12T14:51:32.398Z,2.90
2023-05-12T14:54:25.337Z,2.70
2023-05-12T14:57:13.429Z,2.40
2023-05-12T15:00:02.563Z,2.47
2023-05-12T15:02:48.641Z,2.78
2023-05-12T15:05:47.685Z,2.58
2023-05-12T15:08:52.493Z,2.30
2023-05-12T15:11:38.519Z,2.55
2023-05-12T15:17:15.091Z,2.83
2023-05-12T15:20:01.021Z,2.67
2023-05-12T15:22:49.893Z,2.70
2023-05-12T15:25:38.649Z,2.45
2023-05-12T15:28:24.471Z,2.47
2023-05-12T15:31:10.469Z,2.63
2023-05-12T15:33:56.582Z,2.95
2023-05-12T15:36:45.364Z,2.60
2023-05-12T15:39:31.596Z,2.78
2023-05-12T15:42:22.367Z,3.00
2023-05-12T15:45:12.556Z,2.50
2023-05-12T15:47:58.974Z,2.72
2023-05-12T15:50:45.128Z,3.05
2023-05-12T15:53:31.530Z,3.00
2023-05-12T15:56:17.184Z,3.65
2023-05-12T15:59:05.282Z,3.22
2023-05-12T16:01:51.060Z,3.13
2023-05-12T16:04:36.880Z,2.72
2023-05-12T16:07:22.671Z,2.72
2023-05-12T16:10:09.080Z,2.53
2023-05-12T16:12:54.588Z,3.22
2023-05-12T16:15:41.804Z,3.50
2023-05-12T16:18:30.421Z,3.50
2023-05-12T16:21:16.169Z,3.22
2023-05-12T16:24:03.431Z,3.13
2023-05-12T16:26:49.205Z,2.47
2023-05-12T16:29:35.192Z,3.20
2023-05-12T16:32:22.248Z,2.92
2023-05-12T16:35:08.916Z,3.10
2023-05-12T16:37:54.730Z,2.95
2023-05-12T16:40:40.225Z,2.88
2023-05-12T16:43:26.164Z,3.28
2023-05-12T16:46:12.202Z,3.25
2023-05-12T16:48:59.539Z,3.30
2023-05-12T16:51:45.455Z,3.20
2023-05-12T16:54:34.545Z,3.28
2023-05-12T16:57:21.019Z,3.53
2023-05-12T17:00:09.876Z,3.45
2023-05-12T17:02:55.927Z,3.65
2023-05-12T17:05:44.927Z,3.65
2023-05-12T17:08:30.807Z,3.95
2023-05-12T17:11:16.403Z,3.80
2023-05-12T17:14:04.103Z,3.90
2023-05-12T17:16:49.887Z,3.90
2023-05-12T17:19:41.724Z,3.75
2023-05-12T17:22:29.129Z,4.03
2023-05-12T17:25:18.920Z,3.80
2023-05-12T17:28:04.981Z,3.85
2023-05-12T17:30:50.930Z,3.78
2023-05-12T17:33:37.090Z,3.50
2023-05-12T17:36:24.140Z,4.10
2023-05-12T17:39:15.528Z,3.75
2023-05-12T17:42:01.871Z,4.15
2023-05-12T17:44:48.205Z,3.95
2023-05-12T17:47:34.487Z,3.83
2023-05-12T17:50:20.756Z,4.00
2023-05-12T17:53:06.771Z,4.03
2023-05-12T17:55:54.355Z,4.20
2023-05-12T17:58:39.945Z,3.78
2023-05-12T18:01:25.986Z,3.90
2023-05-12T18:04:12.167Z,3.92
2023-05-12T18:06:59.321Z,4.03
2023-05-12T18:09:45.012Z,4.00
2023-05-12T18:12:32.298Z,4.20
2023-05-12T18:15:19.840Z,4.45
2023-05-12T18:18:06.569Z,4.32
2023-05-12T18:20:52.303Z,4.40
2023-05-12T18:23:37.966Z,4.13
2023-05-12T18:26:24.152Z,4.78
2023-05-12T18:29:11.010Z,4.53
2023-05-12T18:31:56.503Z,4.45
2023-05-12T18:34:44.171Z,4.50
2023-05-12T18:37:29.966Z,4.90
2023-05-12T18:40:16.064Z,3.95
2023-05-12T18:43:01.940Z,4.40
2023-05-12T18:45:49.371Z,4.70
2023-05-12T18:48:35.230Z,5.40
2023-05-12T18:51:20.967Z,4.63
2023-05-12T18:54:06.939Z,5.00
2023-05-12T18:56:53.110Z,5.00
2023-05-12T18:59:38.754Z,4.75
2023-05-12T19:02:26.595Z,5.07
2023-05-12T19:05:12.229Z,5.10
2023-05-12T19:07:58.190Z,4.95
2023-05-12T19:10:44.157Z,5.13
2023-05-12T19:13:30.485Z,5.10
2023-05-12T19:16:16.496Z,5.57
2023-05-12T19:19:03.654Z,6.25
2023-05-12T19:21:49.656Z,6.28
2023-05-12T19:24:37.652Z,6.43
2023-05-12T19:27:23.511Z,6.35
2023-05-12T19:30:09.997Z,6.05
2023-05-12T19:32:56.212Z,6.72
2023-05-12T19:35:43.472Z,7.30
2023-05-12T19:38:29.484Z,7.13
2023-05-12T19:41:15.598Z,7.63
2023-05-12T19:44:01.725Z,6.63
2023-05-12T19:46:47.132Z,13.63
2023-05-12T19:49:34.236Z,16.05
2023-05-12T19:52:21.830Z,17.60
2023-05-12T19:55:08.603Z,10.55
2023-05-12T19:57:54.235Z,9.70
2023-05-12T20:00:40.075Z,8.45
2023-05-12T20:03:25.395Z,8.15
2023-05-12T20:06:11.429Z,7.53
2023-05-12T20:08:58.803Z,8.05
2023-05-12T20:11:44.443Z,7.70
2023-05-12T20:14:31.138Z,6.65
2023-05-12T20:17:17.152Z,6.60
2023-05-12T20:20:04.222Z,6.40
2023-05-12T20:22:49.872Z,7.90
2023-05-12T20:25:37.197Z,7.82
2023-05-12T20:28:23.980Z,6.95
2023-05-12T20:31:10.189Z,6.80
2023-05-12T20:33:56.646Z,7.03
2023-05-12T20:36:42.433Z,6.47
2023-05-12T20:39:28.980Z,7.25
2023-05-12T20:42:16.299Z,6.45
2023-05-12T20:45:02.146Z,7.00
2023-05-12T20:47:48.200Z,6.25
2023-05-12T20:50:34.182Z,6.55
2023-05-12T20:53:20.144Z,6.70
2023-05-12T20:56:08.393Z,6.05
2023-05-12T20:58:57.295Z,6.75
2023-05-12T21:01:42.932Z,6.93
2023-05-12T21:04:28.681Z,7.07
2023-05-12T21:07:14.542Z,7.05
2023-05-12T21:10:00.859Z,7.13
2023-05-12T21:12:46.788Z,7.35
2023-05-12T21:15:33.685Z,7.40
2023-05-12T21:18:19.494Z,7.35
2023-05-12T21:21:06.447Z,7.82
2023-05-12T21:23:52.051Z,7.90
2023-05-12T21:26:38.027Z,7.13
2023-05-12T21:29:23.847Z,7.90
2023-05-12T21:32:11.219Z,8.10
2023-05-12T21:34:57.168Z,7.95
2023-05-12T21:37:43.078Z,7.82
2023-05-12T21:40:30.008Z,8.00
2023-05-12T21:43:15.808Z,7.90
2023-05-12T21:46:05.673Z,8.25
2023-05-12T21:48:53.047Z,8.85
2023-05-12T21:51:39.089Z,9.25
2023-05-12T21:54:25.291Z,9.52
2023-05-12T21:57:11.457Z,9.45
2023-05-12T22:00:02.352Z,9.48
2023-05-12T22:02:55.402Z,9.52
2023-05-12T22:05:42.480Z,9.10
2023-05-12T22:08:28.264Z,8.95
2023-05-12T22:11:14.112Z,8.18
2023-05-12T22:14:00.143Z,8.45
2023-05-12T22:16:45.936Z,7.38
2023-05-12T22:19:31.790Z,7.13
2023-05-12T22:22:19.123Z,6.78
2023-05-12T22:25:05.194Z,6.80
2023-05-12T22:27:51.353Z,7.32
2023-05-12T22:30:37.348Z,6.38
2023-05-12T22:33:23.829Z,6.32
2023-05-12T22:36:09.999Z,7.05
2023-05-12T22:38:57.024Z,6.78
2023-05-12T22:41:42.976Z,6.45
2023-05-12T22:44:28.783Z,6.28
2023-05-12T22:47:15.674Z,6.13
2023-05-12T22:50:04.642Z,6.00
2023-05-12T22:52:57.388Z,6.13
2023-05-12T22:55:44.810Z,6.13
2023-05-12T22:58:30.795Z,6.40
2023-05-12T23:01:16.310Z,5.97
2023-05-12T23:04:10.408Z,5.82
2023-05-12T23:06:56.158Z,6.30
2023-05-12T23:09:42.074Z,5.90
2023-05-12T23:12:29.025Z,5.57
2023-05-12T23:15:14.953Z,5.50
2023-05-12T23:18:00.786Z,5.80
2023-05-12T23:20:46.497Z,5.63
2023-05-12T23:23:33.149Z,5.60
2023-05-12T23:26:18.899Z,5.90
2023-05-12T23:29:05.996Z,5.15
2023-05-12T23:31:51.458Z,5.15
2023-05-12T23:34:40.227Z,5.40
2023-05-12T23:37:26.696Z,5.07
2023-05-12T23:40:12.520Z,5.35
2023-05-12T23:42:58.161Z,5.15
2023-05-12T23:45:46.020Z,5.53
2023-05-12T23:48:40.003Z,5.25
2023-05-12T23:51:30.321Z,5.43
2023-05-12T23:54:15.869Z,5.85
2023-05-12T23:57:03.004Z,5.32
2023-05-12T23:59:48.579Z,5.03
